createdAt,value
2018-05-21T00:00:45.293Z,51.65
2018-05-21T00:01:45.303Z,51.56
2018-05-21T00:03:38.211Z,51.65
2018-05-21T00:04:38.237Z,51.46
2018-05-21T00:06:31.161Z,51.46
2018-05-21T00:07:31.165Z,51.56
2018-05-21T00:09:24.093Z,51.75
2018-05-21T00:10:24.097Z,51.95
2018-05-21T00:12:17.009Z,51.75
2018-05-21T00:13:17.031Z,51.85
2018-05-21T00:15:09.963Z,52.04
2018-05-21T00:16:09.964Z,51.85
2018-05-21T00:18:02.878Z,51.82
2018-05-21T00:19:02.905Z,52.01
2018-05-21T00:20:55.831Z,52.01
2018-05-21T00:21:55.835Z,52.04
2018-05-21T00:23:49.238Z,52.20
2018-05-21T00:24:49.262Z,52.11
2018-05-21T00:26:42.189Z,52.04
2018-05-21T00:27:42.194Z,52.01
2018-05-21T00:29:35.128Z,52.20
2018-05-21T00:30:35.134Z,52.50
2018-05-21T00:32:28.040Z,52.40
2018-05-21T00:33:28.061Z,52.11
2018-05-21T00:35:21.482Z,51.82
2018-05-21T00:36:21.491Z,51.44
2018-05-21T00:38:14.399Z,51.63
2018-05-21T00:39:14.419Z,51.73
2018-05-21T00:41:07.350Z,51.75
2018-05-21T00:42:07.353Z,51.44
2018-05-21T00:44:00.262Z,52.01
2018-05-21T00:45:00.284Z,52.20
2018-05-21T00:46:53.214Z,51.92
2018-05-21T00:47:53.219Z,52.11
2018-05-21T00:49:46.727Z,52.50
2018-05-21T00:50:46.731Z,52.78
2018-05-21T00:52:39.661Z,52.59
2018-05-21T00:53:39.684Z,53.16
2018-05-21T00:55:32.634Z,53.16
2018-05-21T00:56:32.643Z,52.59
2018-05-21T00:58:25.571Z,52.69
2018-05-21T00:59:25.597Z,53.07
2018-05-21T01:01:19.569Z,53.07
2018-05-21T01:02:19.575Z,52.97
2018-05-21T01:04:13.018Z,53.36
2018-05-21T01:05:13.040Z,53.36
2018-05-21T01:07:06.502Z,53.74
2018-05-21T01:08:06.508Z,53.93
2018-05-21T01:09:59.462Z,53.42
2018-05-21T01:10:59.457Z,53.45
2018-05-21T01:12:52.389Z,53.62
2018-05-21T01:13:52.411Z,53.71
2018-05-21T01:15:45.421Z,53.04
2018-05-21T01:16:45.365Z,53.33
2018-05-21T01:18:38.296Z,53.14
2018-05-21T01:19:38.320Z,53.04
2018-05-21T01:21:31.783Z,53.04
2018-05-21T01:22:31.786Z,53.23
2018-05-21T01:24:27.277Z,53.04
2018-05-21T01:25:27.302Z,52.95
2018-05-21T01:27:20.766Z,53.14
2018-05-21T01:28:20.767Z,53.33
2018-05-21T01:30:13.717Z,53.42
2018-05-21T01:31:13.720Z,53.52
2018-05-21T01:33:06.652Z,53.52
2018-05-21T01:34:06.673Z,53.62
2018-05-21T01:35:59.630Z,53.33
2018-05-21T01:36:59.628Z,53.23
2018-05-21T01:38:52.564Z,53.33
2018-05-21T01:39:52.582Z,53.91
2018-05-21T01:41:45.602Z,53.69
2018-05-21T01:42:45.536Z,53.59
2018-05-21T01:44:38.475Z,54.07
2018-05-21T01:45:38.495Z,54.16
2018-05-21T01:47:31.444Z,54.36
2018-05-21T01:48:31.446Z,54.64
2018-05-21T01:50:24.396Z,54.26
2018-05-21T01:51:24.399Z,54.55
2018-05-21T01:53:17.330Z,54.16
2018-05-21T01:54:17.352Z,54.64
2018-05-21T01:56:10.302Z,53.97
2018-05-21T01:57:10.336Z,54.26
2018-05-21T01:59:03.240Z,54.64
2018-05-21T02:00:03.261Z,54.74
2018-05-21T02:01:57.749Z,54.55
2018-05-21T02:02:57.752Z,54.55
2018-05-21T02:04:50.690Z,54.55
2018-05-21T02:05:50.707Z,54.45
2018-05-21T02:07:43.656Z,54.45
2018-05-21T02:08:43.658Z,54.55
2018-05-21T02:10:36.609Z,54.83
2018-05-21T02:11:36.612Z,54.74
2018-05-21T02:13:29.544Z,54.93
2018-05-21T02:14:29.567Z,55.02
2018-05-21T02:16:22.519Z,54.74
2018-05-21T02:17:22.524Z,54.93
2018-05-21T02:19:15.462Z,55.02
2018-05-21T02:20:15.480Z,54.45
2018-05-21T02:22:08.434Z,54.93
2018-05-21T02:23:08.435Z,55.02
2018-05-21T02:25:01.371Z,54.93
2018-05-21T02:26:01.387Z,55.02
2018-05-21T02:27:57.408Z,55.12
2018-05-21T02:28:57.410Z,55.51
2018-05-21T02:30:50.364Z,55.88
2018-05-21T02:31:50.364Z,56.08
2018-05-21T02:33:43.297Z,55.96
2018-05-21T02:34:43.320Z,55.47
2018-05-21T02:36:36.274Z,55.57
2018-05-21T02:37:36.277Z,55.96
2018-05-21T02:39:29.214Z,56.05
2018-05-21T02:40:29.229Z,55.96
2018-05-21T02:42:22.177Z,56.15
2018-05-21T02:43:22.183Z,56.34
2018-05-21T02:45:15.114Z,57.58
2018-05-21T02:46:15.134Z,57.68
2018-05-21T02:48:08.090Z,57.75
2018-05-21T02:49:08.088Z,57.84
2018-05-21T02:51:01.040Z,58.32
2018-05-21T02:52:01.046Z,59.27
2018-05-21T02:53:53.976Z,59.37
2018-05-21T02:54:53.998Z,59.27
2018-05-21T02:56:47.464Z,59.18
2018-05-21T02:57:47.462Z,59.18
2018-05-21T02:59:40.402Z,58.98
2018-05-21T03:00:40.418Z,60.33
2018-05-21T03:02:33.371Z,59.75
2018-05-21T03:03:33.377Z,60.04
2018-05-21T03:05:26.312Z,60.33
2018-05-21T03:06:26.327Z,59.94
2018-05-21T03:08:19.279Z,60.30
2018-05-21T03:09:19.281Z,60.52
2018-05-21T03:11:12.234Z,60.96
2018-05-21T03:12:12.233Z,61.06
2018-05-21T03:14:05.168Z,61.35
2018-05-21T03:15:05.190Z,60.96
2018-05-21T03:16:58.653Z,60.68
2018-05-21T03:17:58.660Z,60.77
2018-05-21T03:19:52.101Z,60.58
2018-05-21T03:20:52.119Z,61.25
2018-05-21T03:22:45.078Z,61.72
2018-05-21T03:23:45.076Z,61.35
2018-05-21T03:25:38.012Z,61.35
2018-05-21T03:26:38.029Z,61.72
2018-05-21T03:28:30.980Z,61.82
2018-05-21T03:29:30.984Z,61.82
2018-05-21T03:31:23.934Z,62.01
2018-05-21T03:32:23.938Z,61.44
2018-05-21T03:34:16.877Z,61.82
2018-05-21T03:35:16.894Z,61.92
2018-05-21T03:37:09.844Z,61.72
2018-05-21T03:38:09.847Z,61.63
2018-05-21T03:40:02.790Z,62.11
2018-05-21T03:41:02.800Z,61.92
2018-05-21T03:42:55.750Z,61.92
2018-05-21T03:43:55.757Z,62.01
2018-05-21T03:45:49.198Z,62.21
2018-05-21T03:46:49.219Z,61.82
2018-05-21T03:48:42.172Z,62.01
2018-05-21T03:49:42.173Z,60.99
2018-05-21T03:51:35.112Z,61.09
2018-05-21T03:52:35.111Z,60.04
2018-05-21T03:54:28.023Z,59.69
2018-05-21T03:55:28.042Z,58.47
2018-05-21T03:57:21.463Z,57.73
2018-05-21T03:58:21.466Z,56.30
2018-05-21T04:00:14.377Z,54.70
2018-05-21T04:01:14.396Z,54.82
2018-05-21T04:03:07.325Z,53.41
2018-05-21T04:04:07.327Z,53.12
2018-05-21T04:06:00.289Z,52.28
2018-05-21T04:07:00.310Z,51.90
2018-05-21T04:08:54.799Z,51.54
2018-05-21T04:09:54.803Z,51.57
2018-05-21T04:11:49.348Z,50.03
2018-05-21T04:12:49.293Z,48.79
2018-05-21T04:14:42.235Z,47.46
2018-05-21T04:15:42.249Z,46.72
2018-05-21T04:17:35.709Z,46.72
2018-05-21T04:18:35.715Z,45.56
2018-05-21T04:20:28.646Z,45.49
2018-05-21T04:21:28.673Z,44.91
2018-05-21T04:23:23.155Z,44.74
2018-05-21T04:24:23.161Z,44.17
2018-05-21T04:26:16.089Z,43.32
2018-05-21T04:27:16.120Z,43.24
2018-05-21T04:29:09.062Z,41.80
2018-05-21T04:30:09.068Z,41.82
2018-05-21T04:32:02.016Z,41.53
2018-05-21T04:33:02.026Z,41.65
2018-05-21T04:34:55.470Z,40.11
2018-05-21T04:35:55.495Z,39.84
2018-05-21T04:37:48.439Z,39.06
2018-05-21T04:38:48.449Z,39.18
2018-05-21T04:40:41.374Z,38.71
2018-05-21T04:41:41.403Z,38.43
2018-05-21T04:43:34.345Z,37.38
2018-05-21T04:44:34.357Z,36.80
2018-05-21T04:46:27.278Z,36.63
2018-05-21T04:47:27.307Z,36.22
2018-05-21T04:49:20.254Z,37.00
2018-05-21T04:50:20.265Z,37.29
2018-05-21T04:52:13.315Z,37.29
2018-05-21T04:53:13.325Z,37.19
2018-05-21T04:55:06.352Z,37.02
2018-05-21T04:56:06.380Z,36.46
2018-05-21T04:57:59.427Z,35.50
2018-05-21T04:58:59.438Z,34.83
2018-05-21T05:00:52.463Z,34.45
2018-05-21T05:01:52.495Z,34.17
2018-05-21T05:03:45.540Z,33.89
2018-05-21T05:04:45.551Z,34.09
2018-05-21T05:06:38.577Z,34.28
2018-05-21T05:07:38.607Z,34.30
2018-05-21T05:09:31.653Z,32.94
2018-05-21T05:10:31.663Z,33.42
2018-05-21T05:12:24.713Z,33.81
2018-05-21T05:13:24.720Z,34.01
2018-05-21T05:15:17.748Z,33.52
2018-05-21T05:16:17.779Z,33.64
2018-05-21T05:18:10.823Z,32.87
2018-05-21T05:19:10.835Z,32.29
2018-05-21T05:21:03.912Z,32.49
2018-05-21T05:22:03.890Z,32.78
2018-05-21T05:23:56.937Z,32.86
2018-05-21T05:24:56.947Z,32.96
2018-05-21T05:26:49.974Z,32.97
2018-05-21T05:27:50.005Z,32.59
2018-05-21T05:29:43.049Z,32.78
2018-05-21T05:30:43.061Z,32.59
2018-05-21T05:32:36.105Z,32.50
2018-05-21T05:33:36.120Z,32.60
2018-05-21T05:35:29.144Z,32.31
2018-05-21T05:36:29.182Z,32.21
2018-05-21T05:38:22.219Z,32.29
2018-05-21T05:39:22.236Z,32.59
2018-05-21T05:41:15.257Z,32.87
2018-05-21T05:42:15.288Z,32.87
2018-05-21T05:44:08.333Z,32.39
2018-05-21T05:45:08.348Z,32.39
2018-05-21T05:47:01.372Z,33.26
2018-05-21T05:48:01.403Z,32.78
2018-05-21T05:49:54.451Z,33.33
2018-05-21T05:50:54.464Z,33.80
2018-05-21T05:52:47.503Z,34.75
2018-05-21T05:53:47.517Z,35.70
2018-05-21T05:55:40.540Z,36.28
2018-05-21T05:56:40.572Z,36.66
2018-05-21T05:58:34.023Z,37.15
2018-05-21T05:59:34.038Z,37.05
2018-05-21T06:01:27.061Z,37.54
2018-05-21T06:02:27.094Z,37.05
2018-05-21T06:04:20.140Z,37.73
2018-05-21T06:05:20.152Z,37.65
2018-05-21T06:07:13.585Z,37.26
2018-05-21T06:08:13.617Z,37.46
2018-05-21T06:10:06.661Z,36.99
2018-05-21T06:11:06.675Z,36.90
2018-05-21T06:12:59.716Z,36.78
2018-05-21T06:13:59.729Z,37.17
2018-05-21T06:15:52.755Z,38.13
2018-05-21T06:16:52.789Z,37.82
2018-05-21T06:18:45.831Z,38.41
2018-05-21T06:19:45.847Z,38.31
2018-05-21T06:21:38.868Z,38.12
2018-05-21T06:22:38.902Z,37.73
2018-05-21T06:24:31.947Z,38.29
2018-05-21T06:25:31.960Z,38.87
2018-05-21T06:27:24.983Z,38.70
2018-05-21T06:28:25.017Z,38.99
2018-05-21T06:30:18.055Z,39.11
2018-05-21T06:31:18.074Z,38.83
2018-05-21T06:33:11.115Z,37.21
2018-05-21T06:34:11.237Z,36.82
2018-05-21T06:36:04.152Z,37.01
2018-05-21T06:37:04.184Z,36.33
2018-05-21T06:38:57.228Z,37.03
2018-05-21T06:39:57.242Z,35.57
2018-05-21T06:41:50.783Z,35.09
2018-05-21T06:42:50.813Z,35.57
2018-05-21T06:44:43.893Z,35.28
2018-05-21T06:45:43.812Z,35.59
2018-05-21T06:47:36.793Z,35.09
2018-05-21T06:48:36.824Z,35.85
2018-05-21T06:50:29.862Z,35.75
2018-05-21T06:51:29.879Z,36.24
2018-05-21T06:53:22.918Z,37.11
2018-05-21T06:54:22.933Z,36.80
2018-05-21T06:56:15.957Z,37.19
2018-05-21T06:57:15.992Z,37.67
2018-05-21T06:59:09.033Z,37.28
2018-05-21T07:00:09.047Z,37.28
2018-05-21T07:02:03.505Z,37.57
2018-05-21T07:03:03.540Z,37.77
2018-05-21T07:04:56.581Z,38.81
2018-05-21T07:05:56.596Z,38.93
2018-05-21T07:07:49.617Z,39.51
2018-05-21T07:08:49.649Z,39.04
2018-05-21T07:10:42.692Z,38.54
2018-05-21T07:11:42.708Z,38.45
2018-05-21T07:13:35.749Z,38.83
2018-05-21T07:14:35.767Z,38.54
2018-05-21T07:16:29.300Z,39.11
2018-05-21T07:17:29.333Z,39.47
2018-05-21T07:19:22.374Z,40.53
2018-05-21T07:20:22.388Z,40.44
2018-05-21T07:22:16.844Z,40.44
2018-05-21T07:23:16.876Z,40.83
2018-05-21T07:25:09.823Z,41.79
2018-05-21T07:26:09.834Z,41.70
2018-05-21T07:28:02.854Z,41.58
2018-05-21T07:29:02.884Z,41.67
2018-05-21T07:30:55.928Z,41.46
2018-05-21T07:31:55.941Z,42.14
2018-05-21T07:33:48.985Z,43.49
2018-05-21T07:34:48.996Z,43.59
2018-05-21T07:36:42.022Z,42.91
2018-05-21T07:37:42.054Z,43.18
2018-05-21T07:39:35.619Z,43.66
2018-05-21T07:40:35.630Z,43.37
2018-05-21T07:42:28.647Z,44.34
2018-05-21T07:43:28.677Z,43.76
2018-05-21T07:45:22.132Z,43.93
2018-05-21T07:46:22.141Z,44.80
2018-05-21T07:48:15.169Z,45.38
2018-05-21T07:49:15.199Z,45.57
2018-05-21T07:51:08.632Z,44.73
2018-05-21T07:52:08.645Z,45.11
2018-05-21T07:54:01.609Z,44.42
2018-05-21T07:55:01.620Z,44.90
2018-05-21T07:56:54.646Z,44.80
2018-05-21T07:57:54.676Z,44.51
2018-05-21T07:59:47.722Z,44.60
2018-05-21T08:00:47.732Z,45.00
2018-05-21T08:02:40.759Z,45.18
2018-05-21T08:03:40.786Z,45.00
2018-05-21T08:05:33.834Z,45.09
2018-05-21T08:06:33.846Z,45.38
2018-05-21T08:08:26.872Z,44.90
2018-05-21T08:09:26.899Z,45.18
2018-05-21T08:11:20.356Z,45.57
2018-05-21T08:12:20.367Z,45.18
2018-05-21T08:14:13.313Z,44.60
2018-05-21T08:15:13.322Z,44.73
2018-05-21T08:17:06.350Z,44.73
2018-05-21T08:18:06.377Z,44.94
2018-05-21T08:19:59.423Z,44.36
2018-05-21T08:20:59.434Z,44.26
2018-05-21T08:22:52.871Z,43.98
2018-05-21T08:23:52.901Z,44.26
2018-05-21T08:25:56.323Z,44.43
2018-05-21T08:26:46.168Z,44.53
2018-05-21T08:28:39.192Z,44.84
2018-05-21T08:29:48.456Z,44.65
2018-05-21T08:31:32.265Z,44.65
2018-05-21T08:32:32.277Z,44.53
2018-05-21T08:34:33.804Z,44.15
2018-05-21T08:35:25.762Z,44.43
2018-05-21T08:37:18.767Z,45.76
2018-05-21T08:38:28.041Z,45.21
2018-05-21T08:40:20.991Z,45.79
2018-05-21T08:41:13.292Z,45.50
2018-05-21T08:43:06.314Z,44.63
2018-05-21T08:44:06.342Z,44.34
2018-05-21T08:45:59.390Z,44.26
2018-05-21T08:46:59.401Z,43.88
2018-05-21T08:48:53.455Z,44.65
2018-05-21T08:49:53.379Z,43.98
2018-05-21T08:51:46.425Z,42.04
2018-05-21T08:52:46.435Z,43.01
2018-05-21T08:54:39.494Z,42.14
2018-05-21T08:55:39.505Z,42.62
2018-05-21T08:57:32.520Z,43.20
2018-05-21T08:58:32.550Z,43.01
2018-05-21T09:00:26.061Z,44.38
2018-05-21T09:01:26.015Z,44.09
2018-05-21T09:03:19.041Z,43.61
2018-05-21T09:04:19.071Z,43.13
2018-05-21T09:06:15.091Z,43.41
2018-05-21T09:07:15.097Z,44.38
2018-05-21T09:09:08.124Z,45.37
2018-05-21T09:10:08.213Z,44.38
2018-05-21T09:12:01.612Z,39.86
2018-05-21T09:13:01.620Z,40.34
2018-05-21T09:14:55.088Z,39.95
2018-05-21T09:15:55.088Z,40.53
2018-05-21T09:17:48.114Z,40.65
2018-05-21T09:18:48.144Z,41.72
2018-05-21T09:20:41.599Z,39.59
2018-05-21T09:21:41.607Z,40.46
2018-05-21T09:23:34.641Z,38.23
2018-05-21T09:24:34.666Z,37.63
2018-05-21T09:26:27.713Z,38.79
2018-05-21T09:27:27.723Z,38.99
2018-05-21T09:29:20.749Z,40.34
2018-05-21T09:30:20.779Z,39.59
2018-05-21T09:32:14.235Z,38.33
2018-05-21T09:33:14.246Z,37.75
2018-05-21T09:35:07.294Z,39.01
2018-05-21T09:36:07.300Z,38.23
2018-05-21T09:38:00.331Z,38.43
2018-05-21T09:39:17.485Z,37.73
2018-05-21T09:40:53.304Z,38.89
2018-05-21T09:42:00.452Z,38.50
2018-05-21T09:43:53.979Z,39.67
2018-05-21T09:44:53.864Z,39.47
2018-05-21T09:46:46.811Z,39.67
2018-05-21T09:47:46.819Z,39.18
2018-05-21T09:49:32.646Z,39.37
2018-05-21T09:50:32.644Z,39.67
2018-05-21T09:52:25.557Z,39.67
2018-05-21T09:53:25.587Z,40.34
2018-05-21T09:55:18.710Z,39.39
2018-05-21T09:56:18.717Z,38.53
2018-05-21T09:58:11.643Z,38.81
2018-05-21T09:59:11.665Z,38.13
2018-05-21T10:01:05.124Z,39.11
2018-05-21T10:02:05.117Z,39.01
2018-05-21T10:03:58.043Z,38.15
2018-05-21T10:04:58.119Z,37.19
2018-05-21T10:06:51.008Z,38.54
2018-05-21T10:07:51.014Z,38.93
2018-05-21T10:09:43.931Z,38.23
2018-05-21T10:10:43.962Z,37.55
2018-05-21T10:12:36.903Z,37.36
2018-05-21T10:13:36.911Z,37.34
2018-05-21T10:15:29.857Z,38.41
2018-05-21T10:16:29.860Z,38.89
2018-05-21T10:18:23.782Z,36.38
2018-05-21T10:19:23.884Z,37.24
2018-05-21T10:21:16.749Z,38.02
2018-05-21T10:22:16.759Z,38.70
2018-05-21T10:24:09.755Z,37.05
2018-05-21T10:25:09.705Z,36.96
2018-05-21T10:27:02.645Z,37.54
2018-05-21T10:28:02.654Z,37.54
2018-05-21T10:29:56.596Z,36.49
2018-05-21T10:30:56.594Z,37.46
2018-05-21T10:32:49.515Z,37.87
2018-05-21T10:33:49.542Z,38.13
2018-05-21T10:35:42.489Z,36.41
2018-05-21T10:36:42.489Z,35.42
2018-05-21T10:38:35.410Z,36.02
2018-05-21T10:39:35.438Z,37.38
2018-05-21T10:41:28.380Z,36.12
2018-05-21T10:42:28.390Z,35.73
2018-05-21T10:44:21.308Z,37.40
2018-05-21T10:45:21.335Z,35.93
2018-05-21T10:47:14.300Z,36.60
2018-05-21T10:48:14.296Z,36.90
2018-05-21T10:50:07.226Z,36.02
2018-05-21T10:51:07.233Z,35.81
2018-05-21T10:53:00.176Z,35.72
2018-05-21T10:54:00.180Z,36.86
2018-05-21T10:55:53.128Z,37.54
2018-05-21T10:56:53.134Z,37.54
2018-05-21T10:58:46.062Z,37.34
2018-05-21T10:59:46.081Z,37.92
2018-05-21T11:01:39.212Z,38.41
2018-05-21T11:02:39.216Z,39.09
2018-05-21T11:04:32.358Z,39.49
2018-05-21T11:05:32.392Z,37.46
2018-05-21T11:07:25.320Z,37.65
2018-05-21T11:08:25.329Z,38.43
2018-05-21T11:10:18.459Z,38.25
2018-05-21T11:11:18.487Z,38.35
2018-05-21T11:13:11.429Z,36.41
2018-05-21T11:14:11.437Z,37.57
2018-05-21T11:16:04.376Z,38.64
2018-05-21T11:17:04.385Z,36.60
2018-05-21T11:18:57.304Z,37.49
2018-05-21T11:19:57.332Z,36.90
2018-05-21T11:21:50.274Z,37.09
2018-05-21T11:22:50.279Z,38.25
2018-05-21T11:24:43.218Z,35.83
2018-05-21T11:25:43.231Z,36.90
2018-05-21T11:27:37.170Z,37.38
2018-05-21T11:28:37.176Z,36.99
2018-05-21T11:30:30.093Z,35.54
2018-05-21T11:31:30.122Z,36.02
2018-05-21T11:33:23.063Z,35.75
2018-05-21T11:34:23.070Z,34.69
2018-05-21T11:36:17.008Z,33.89
2018-05-21T11:37:17.018Z,35.15
2018-05-21T11:39:09.934Z,36.41
2018-05-21T11:40:09.965Z,35.35
2018-05-21T11:42:02.902Z,35.05
2018-05-21T11:43:02.912Z,35.54
2018-05-21T11:44:55.832Z,35.35
2018-05-21T11:45:55.859Z,35.64
2018-05-21T11:47:48.802Z,34.19
2018-05-21T11:48:48.807Z,34.77
2018-05-21T11:50:41.840Z,34.96
2018-05-21T11:51:41.760Z,34.28
2018-05-21T11:53:34.677Z,34.28
2018-05-21T11:54:34.705Z,34.28
2018-05-21T11:56:27.643Z,34.57
2018-05-21T11:57:27.651Z,34.38
2018-05-21T11:59:20.574Z,33.89
2018-05-21T12:00:20.602Z,34.19
2018-05-21T12:02:13.542Z,35.25
2018-05-21T12:03:13.549Z,34.28
2018-05-21T12:05:06.469Z,34.19
2018-05-21T12:06:06.498Z,33.72
2018-05-21T12:07:59.438Z,34.28
2018-05-21T12:08:59.445Z,34.20
2018-05-21T12:10:52.386Z,34.01
2018-05-21T12:11:52.393Z,32.56
2018-05-21T12:13:45.333Z,33.62
2018-05-21T12:14:45.342Z,33.52
2018-05-21T12:16:38.290Z,33.81
2018-05-21T12:17:38.296Z,32.84
2018-05-21T12:19:31.222Z,32.84
2018-05-21T12:20:31.249Z,32.73
2018-05-21T12:22:24.286Z,33.99
2018-05-21T12:23:24.212Z,35.05
2018-05-21T12:25:17.314Z,36.12
2018-05-21T12:26:17.343Z,34.77
2018-05-21T12:28:11.285Z,34.27
2018-05-21T12:29:11.289Z,34.28
2018-05-21T12:31:04.705Z,34.57
2018-05-21T12:32:04.735Z,34.86
2018-05-21T12:33:57.681Z,33.60
2018-05-21T12:34:57.682Z,33.12
2018-05-21T12:36:50.623Z,33.72
2018-05-21T12:37:50.632Z,32.84
2018-05-21T12:39:43.553Z,32.56
2018-05-21T12:40:43.581Z,32.92
2018-05-21T12:42:36.520Z,33.91
2018-05-21T12:43:36.526Z,34.39
2018-05-21T12:45:29.450Z,33.04
2018-05-21T12:46:29.477Z,32.36
2018-05-21T12:48:22.417Z,31.87
2018-05-21T12:49:22.427Z,32.46
2018-05-21T12:51:15.356Z,31.87
2018-05-21T12:52:15.386Z,31.41
2018-05-21T12:54:08.514Z,34.22
2018-05-21T12:55:08.521Z,32.84
2018-05-21T12:57:01.466Z,34.59
2018-05-21T12:58:01.481Z,36.35
2018-05-21T12:59:54.397Z,34.12
2018-05-21T13:00:54.423Z,34.41
2018-05-21T13:02:47.366Z,33.72
2018-05-21T13:03:47.389Z,33.73
2018-05-21T13:05:40.570Z,35.48
2018-05-21T13:06:40.546Z,33.92
2018-05-21T13:08:33.495Z,33.83
2018-05-21T13:09:33.496Z,34.02
2018-05-21T13:11:26.450Z,32.28
2018-05-21T13:12:26.478Z,32.84
2018-05-21T13:14:19.937Z,33.80
2018-05-21T13:15:19.987Z,33.23
2018-05-21T13:17:12.861Z,33.70
2018-05-21T13:18:12.867Z,33.99
2018-05-21T13:20:06.284Z,34.49
2018-05-21T13:21:06.309Z,33.33
2018-05-21T13:22:59.254Z,33.62
2018-05-21T13:23:59.303Z,34.01
2018-05-21T13:25:52.177Z,33.04
2018-05-21T13:26:52.210Z,33.23
2018-05-21T13:28:45.147Z,33.62
2018-05-21T13:29:45.155Z,33.72
2018-05-21T13:31:38.077Z,34.30
2018-05-21T13:32:38.109Z,33.72
2018-05-21T13:34:31.056Z,35.66
2018-05-21T13:35:31.051Z,34.49
2018-05-21T13:37:24.001Z,35.27
2018-05-21T13:38:24.039Z,34.78
2018-05-21T13:40:16.925Z,35.56
2018-05-21T13:41:16.954Z,35.94
2018-05-21T13:43:09.953Z,37.01
2018-05-21T13:44:09.903Z,36.52
2018-05-21T13:46:02.827Z,36.83
2018-05-21T13:47:02.852Z,36.25
2018-05-21T13:48:55.803Z,35.48
2018-05-21T13:49:55.809Z,34.80
2018-05-21T13:51:49.219Z,34.23
2018-05-21T13:52:49.317Z,34.62
2018-05-21T13:54:42.395Z,34.72
2018-05-21T13:55:42.403Z,34.43
2018-05-21T13:57:35.344Z,34.31
2018-05-21T13:58:35.352Z,34.14
2018-05-21T14:00:28.274Z,35.28
2018-05-21T14:01:28.304Z,35.57
2018-05-21T14:03:21.244Z,36.25
2018-05-21T14:04:21.253Z,35.57
2018-05-21T14:06:14.174Z,35.67
2018-05-21T14:07:14.202Z,35.96
2018-05-21T14:09:07.151Z,36.74
2018-05-21T14:10:07.153Z,34.70
2018-05-21T14:12:00.075Z,34.89
2018-05-21T14:13:00.101Z,34.89
2018-05-21T14:14:53.045Z,35.19
2018-05-21T14:15:53.057Z,35.86
2018-05-21T14:17:45.990Z,35.28
2018-05-21T14:18:46.003Z,35.09
2018-05-21T14:20:38.920Z,35.09
2018-05-21T14:21:38.970Z,35.38
2018-05-21T14:23:31.889Z,35.48
2018-05-21T14:24:31.918Z,35.86
2018-05-21T14:26:24.992Z,36.64
2018-05-21T14:27:25.033Z,36.44
2018-05-21T14:29:18.156Z,35.69
2018-05-21T14:30:18.164Z,36.27
2018-05-21T14:32:11.291Z,34.70
2018-05-21T14:33:11.414Z,34.12
2018-05-21T14:35:04.765Z,35.86
2018-05-21T14:36:04.782Z,35.66
2018-05-21T14:37:57.941Z,37.11
2018-05-21T14:38:57.968Z,37.13
2018-05-21T14:40:51.073Z,36.06
2018-05-21T14:41:51.109Z,35.96
2018-05-21T14:43:44.258Z,36.44
2018-05-21T14:44:44.267Z,37.03
2018-05-21T14:46:37.188Z,34.53
2018-05-21T14:47:37.214Z,33.94
2018-05-21T14:49:30.366Z,35.13
2018-05-21T14:50:30.375Z,34.35
2018-05-21T14:52:23.508Z,34.14
2018-05-21T14:53:23.535Z,34.33
2018-05-21T14:55:16.477Z,34.53
2018-05-21T14:56:16.486Z,34.81
2018-05-21T14:58:09.648Z,34.62
2018-05-21T14:59:09.647Z,34.31
2018-05-21T15:01:02.779Z,35.67
2018-05-21T15:02:02.886Z,34.31
2018-05-21T15:03:55.957Z,34.12
2018-05-21T15:04:55.965Z,33.83
2018-05-21T15:06:49.097Z,33.34
2018-05-21T15:07:49.124Z,33.54
2018-05-21T15:09:42.066Z,34.22
2018-05-21T15:10:42.074Z,34.31
2018-05-21T15:12:35.193Z,34.22
2018-05-21T15:13:35.223Z,34.61
2018-05-21T15:15:28.401Z,35.11
2018-05-21T15:16:28.404Z,33.84
2018-05-21T15:18:21.548Z,33.26
2018-05-21T15:19:21.556Z,33.75
2018-05-21T15:21:14.688Z,34.53
2018-05-21T15:22:14.762Z,33.75
2018-05-21T15:24:07.661Z,33.75
2018-05-21T15:25:07.685Z,33.84
2018-05-21T15:27:00.592Z,33.75
2018-05-21T15:28:00.617Z,33.94
2018-05-21T15:29:53.557Z,33.46
2018-05-21T15:30:53.572Z,33.76
2018-05-21T15:32:46.709Z,33.76
2018-05-21T15:33:46.735Z,32.31
2018-05-21T15:35:39.711Z,32.49
2018-05-21T15:36:39.727Z,32.96
2018-05-21T15:38:33.158Z,32.96
2018-05-21T15:39:33.170Z,32.86
2018-05-21T15:41:27.587Z,34.12
2018-05-21T15:42:27.617Z,33.92
2018-05-21T15:44:20.558Z,33.44
2018-05-21T15:45:20.568Z,33.36
2018-05-21T15:47:13.989Z,33.26
2018-05-21T15:48:14.018Z,33.94
2018-05-21T15:50:08.455Z,33.56
2018-05-21T15:51:08.467Z,33.07
2018-05-21T15:53:01.393Z,32.79
2018-05-21T15:54:01.425Z,32.68
2018-05-21T15:55:55.870Z,32.59
2018-05-21T15:56:55.883Z,32.50
2018-05-21T15:58:48.825Z,32.21
2018-05-21T15:59:48.836Z,33.28
2018-05-21T16:01:41.761Z,32.02
2018-05-21T16:02:41.791Z,32.12
2018-05-21T16:04:35.228Z,28.63
2018-05-21T16:05:35.243Z,28.15
2018-05-21T16:07:28.658Z,23.49
2018-05-21T16:08:28.691Z,24.46
2018-05-21T16:10:22.129Z,23.20
2018-05-21T16:11:22.141Z,24.95
2018-05-21T16:13:15.578Z,29.40
2018-05-21T16:14:15.591Z,30.48
2018-05-21T16:16:08.536Z,31.53
2018-05-21T16:17:08.545Z,31.15
2018-05-21T16:19:01.986Z,32.02
2018-05-21T16:20:01.995Z,31.92
2018-05-21T16:21:55.428Z,32.31
2018-05-21T16:22:55.456Z,32.79
2018-05-21T16:24:48.895Z,31.34
2018-05-21T16:25:48.906Z,32.31
2018-05-21T16:27:42.328Z,32.31
2018-05-21T16:28:42.355Z,32.50
2018-05-21T16:30:35.298Z,29.50
2018-05-21T16:31:35.310Z,29.69
2018-05-21T16:33:29.753Z,30.47
2018-05-21T16:34:29.757Z,30.18
2018-05-21T16:36:23.195Z,29.69
2018-05-21T16:37:23.220Z,31.34
2018-05-21T16:39:16.661Z,31.63
2018-05-21T16:40:16.671Z,31.92
2018-05-21T16:42:10.185Z,31.24
2018-05-21T16:43:10.216Z,31.44
2018-05-21T16:45:03.257Z,31.62
2018-05-21T16:46:03.271Z,31.41
2018-05-21T16:47:56.295Z,31.79
2018-05-21T16:48:56.324Z,32.75
2018-05-21T16:50:49.371Z,34.51
2018-05-21T16:51:49.382Z,33.73
2018-05-21T16:53:42.426Z,33.73
2018-05-21T16:54:42.437Z,33.07
2018-05-21T16:56:35.465Z,32.49
2018-05-21T16:57:35.494Z,32.20
2018-05-21T16:59:28.537Z,31.81
2018-05-21T17:00:28.571Z,32.59
2018-05-21T17:02:21.987Z,32.68
2018-05-21T17:03:22.018Z,32.29
2018-05-21T17:05:15.470Z,32.59
2018-05-21T17:06:15.482Z,33.26
2018-05-21T17:08:08.920Z,32.78
2018-05-21T17:09:08.951Z,32.78
2018-05-21T17:11:01.994Z,32.59
2018-05-21T17:12:02.006Z,32.47
2018-05-21T17:13:55.523Z,32.67
2018-05-21T17:14:55.481Z,32.59
2018-05-21T17:16:48.496Z,32.59
2018-05-21T17:17:48.530Z,31.41
2018-05-21T17:19:41.572Z,31.41
2018-05-21T17:20:41.583Z,31.31
2018-05-21T17:22:34.609Z,31.31
2018-05-21T17:23:34.639Z,31.31
2018-05-21T17:25:27.685Z,32.09
2018-05-21T17:26:27.696Z,32.57
2018-05-21T17:28:20.724Z,32.28
2018-05-21T17:29:20.760Z,32.37
2018-05-21T17:31:13.796Z,32.18
2018-05-21T17:32:13.808Z,32.18
2018-05-21T17:34:07.265Z,32.09
2018-05-21T17:35:07.277Z,32.18
2018-05-21T17:37:00.306Z,31.41
2018-05-21T17:38:00.420Z,31.31
2018-05-21T17:39:53.788Z,31.60
2018-05-21T17:40:53.796Z,31.21
2018-05-21T17:42:46.824Z,31.41
2018-05-21T17:43:46.854Z,32.28
2018-05-21T17:45:39.898Z,31.21
2018-05-21T17:46:39.911Z,31.02
2018-05-21T17:48:32.937Z,31.60
2018-05-21T17:49:32.967Z,31.12
2018-05-21T17:51:26.012Z,30.84
2018-05-21T17:52:26.024Z,30.94
2018-05-21T17:54:19.072Z,30.47
2018-05-21T17:55:19.080Z,30.18
2018-05-21T17:57:12.187Z,29.80
2018-05-21T17:58:12.137Z,29.71
2018-05-21T18:00:05.182Z,28.64
2018-05-21T18:01:05.193Z,29.41
2018-05-21T18:02:58.226Z,29.33
2018-05-21T18:03:58.251Z,28.17
2018-05-21T18:05:51.295Z,27.96
2018-05-21T18:06:51.309Z,27.76
2018-05-21T18:08:44.796Z,27.78
2018-05-21T18:09:44.772Z,27.48
2018-05-21T18:11:37.819Z,27.19
2018-05-21T18:12:37.833Z,27.68
2018-05-21T18:14:31.287Z,27.58
2018-05-21T18:15:31.296Z,27.58
2018-05-21T18:17:24.325Z,27.29
2018-05-21T18:18:24.354Z,27.19
2018-05-21T18:20:17.401Z,27.50
2018-05-21T18:21:17.449Z,27.50
2018-05-21T18:23:10.846Z,27.01
2018-05-21T18:24:10.878Z,27.01
2018-05-21T18:26:04.328Z,26.90
2018-05-21T18:27:04.342Z,27.19
2018-05-21T18:28:57.367Z,27.28
2018-05-21T18:29:57.399Z,27.96
2018-05-21T18:31:50.447Z,28.53
2018-05-21T18:32:50.455Z,28.90
2018-05-21T18:34:43.503Z,30.15